createdAt,value
2019-04-04T00:02:01.676Z,11.07
2019-04-04T00:04:33.795Z,10.57
2019-04-04T00:07:05.867Z,11.77
2019-04-04T00:09:38.067Z,10.87
2019-04-04T00:12:10.340Z,10.13
2019-04-04T00:14:43.815Z,10.17
2019-04-04T00:17:16.361Z,10.23
2019-04-04T00:19:48.412Z,10.63
2019-04-04T00:22:20.511Z,10.60
2019-04-04T00:24:52.621Z,11.07
2019-04-04T00:27:24.640Z,11.43
2019-04-04T00:29:56.750Z,11.33
2019-04-04T00:32:28.792Z,9.70
2019-04-04T00:35:00.850Z,10.90
2019-04-04T00:37:32.487Z,9.80
2019-04-04T00:40:04.236Z,10.43
2019-04-04T00:42:35.875Z,10.13
2019-04-04T00:45:08.057Z,10.47
2019-04-04T00:47:39.712Z,12.97
2019-04-04T00:50:11.496Z,12.30
2019-04-04T00:52:43.250Z,11.47
2019-04-04T00:55:15.831Z,11.60
2019-04-04T00:57:48.196Z,11.90
2019-04-04T01:00:22.037Z,11.83
2019-04-04T01:02:54.833Z,11.20
2019-04-04T01:05:26.645Z,11.83
2019-04-04T01:07:58.269Z,12.47
2019-04-04T01:10:29.940Z,11.60
2019-04-04T01:13:01.566Z,11.50
2019-04-04T01:15:33.263Z,11.53
2019-04-04T01:18:06.169Z,11.80
2019-04-04T01:20:38.834Z,12.90
2019-04-04T01:23:10.854Z,12.13
2019-04-04T01:25:42.931Z,11.40
2019-04-04T01:28:14.972Z,11.97
2019-04-04T01:30:47.284Z,11.13
2019-04-04T01:33:20.072Z,12.90
2019-04-04T01:35:54.071Z,12.53
2019-04-04T01:38:27.119Z,11.80
2019-04-04T01:40:59.350Z,12.10
2019-04-04T01:43:31.096Z,11.77
2019-04-04T01:46:03.193Z,12.17
2019-04-04T01:48:35.622Z,12.77
2019-04-04T01:51:08.141Z,11.47
2019-04-04T01:53:40.272Z,12.37
2019-04-04T01:56:12.324Z,11.87
2019-04-04T01:58:44.364Z,12.73
2019-04-04T02:01:17.033Z,12.67
2019-04-04T02:03:49.216Z,12.07
2019-04-04T02:06:21.650Z,11.00
2019-04-04T02:08:53.820Z,11.70
2019-04-04T02:11:26.047Z,12.33
2019-04-04T02:13:58.084Z,12.20
2019-04-04T02:16:30.154Z,12.47
2019-04-04T02:19:02.260Z,12.43
2019-04-04T02:21:34.434Z,12.43
2019-04-04T02:24:06.584Z,12.90
2019-04-04T02:26:38.787Z,12.43
2019-04-04T02:29:11.679Z,12.40
2019-04-04T02:31:47.856Z,12.83
2019-04-04T02:34:19.934Z,12.13
2019-04-04T02:36:52.123Z,12.03
2019-04-04T02:39:26.285Z,12.67
2019-04-04T02:41:58.576Z,12.73
2019-04-04T02:44:32.155Z,12.90
2019-04-04T02:47:04.445Z,13.23
2019-04-04T02:49:36.525Z,13.33
2019-04-04T02:52:12.898Z,12.67
2019-04-04T02:54:42.355Z,12.23
2019-04-04T02:57:14.487Z,11.97
2019-04-04T02:59:46.479Z,12.53
2019-04-04T03:02:18.611Z,12.70
2019-04-04T03:04:50.808Z,12.70
2019-04-04T03:07:23.402Z,12.70
2019-04-04T03:09:55.603Z,12.80
2019-04-04T03:12:27.671Z,13.50
2019-04-04T03:14:59.692Z,13.33
2019-04-04T03:17:32.752Z,14.20
2019-04-04T03:20:05.498Z,13.00
2019-04-04T03:22:37.640Z,13.37
2019-04-04T03:25:14.325Z,13.17
2019-04-04T03:27:43.845Z,13.40
2019-04-04T03:30:17.321Z,13.93
2019-04-04T03:32:54.120Z,13.17
2019-04-04T03:35:27.971Z,12.90
2019-04-04T03:37:57.334Z,14.00
2019-04-04T03:40:29.475Z,13.83
2019-04-04T03:43:01.632Z,13.50
2019-04-04T03:45:33.701Z,13.50
2019-04-04T03:48:06.037Z,14.37
2019-04-04T03:50:38.325Z,14.73
2019-04-04T03:53:10.457Z,14.80
2019-04-04T03:55:42.531Z,13.97
2019-04-04T03:58:14.665Z,15.00
2019-04-04T04:00:46.723Z,16.03
2019-04-04T04:03:22.244Z,17.87
2019-04-04T04:05:53.135Z,17.47
2019-04-04T04:08:25.304Z,16.33
2019-04-04T04:10:57.545Z,22.13
2019-04-04T04:13:29.665Z,18.53
2019-04-04T04:16:03.693Z,17.60
2019-04-04T04:18:35.495Z,19.93
2019-04-04T04:21:10.989Z,16.53
2019-04-04T04:23:41.318Z,15.70
2019-04-04T04:26:13.398Z,17.23
2019-04-04T04:28:45.489Z,14.67
2019-04-04T04:31:17.683Z,18.33
2019-04-04T04:33:50.032Z,31.67
2019-04-04T04:36:22.093Z,17.13
2019-04-04T04:38:58.794Z,16.93
2019-04-04T04:41:28.540Z,15.67
2019-04-04T04:44:02.836Z,14.90
2019-04-04T04:46:34.689Z,15.33
2019-04-04T04:49:06.833Z,16.73
2019-04-04T04:51:38.837Z,14.83
2019-04-04T04:54:10.882Z,15.90
2019-04-04T04:56:42.956Z,15.37
2019-04-04T04:59:15.410Z,16.10
2019-04-04T05:01:50.243Z,15.53
2019-04-04T05:04:21.349Z,15.13
2019-04-04T05:06:53.587Z,15.53
2019-04-04T05:09:25.698Z,18.50
2019-04-04T05:11:57.769Z,15.30
2019-04-04T05:14:30.598Z,15.27
2019-04-04T05:17:02.760Z,15.70
2019-04-04T05:19:34.835Z,16.10
2019-04-04T05:22:07.113Z,14.97
2019-04-04T05:24:42.312Z,14.97
2019-04-04T05:27:14.393Z,15.90
2019-04-04T05:29:46.680Z,15.83
2019-04-04T05:32:20.910Z,14.97
2019-04-04T05:34:52.450Z,13.63
2019-04-04T05:37:27.402Z,16.43
2019-04-04T05:39:58.313Z,15.73
2019-04-04T05:42:32.852Z,14.30
2019-04-04T05:45:04.303Z,15.37
2019-04-04T05:47:36.676Z,14.80
2019-04-04T05:50:11.347Z,15.83
2019-04-04T05:52:43.294Z,15.70
2019-04-04T05:55:15.536Z,15.23
2019-04-04T05:57:48.978Z,19.00
2019-04-04T06:00:21.788Z,15.90
2019-04-04T06:02:53.896Z,20.10
2019-04-04T06:05:27.171Z,16.77
2019-04-04T06:07:59.929Z,14.63
2019-04-04T06:10:32.045Z,15.17
2019-04-04T06:13:04.287Z,16.00
2019-04-04T06:15:36.556Z,14.63
2019-04-04T06:18:10.971Z,15.70
2019-04-04T06:20:42.429Z,15.87
2019-04-04T06:23:14.519Z,14.77
2019-04-04T06:25:46.663Z,14.97
2019-04-04T06:28:18.766Z,14.40
2019-04-04T06:30:53.621Z,14.17
2019-04-04T06:33:24.710Z,14.67
2019-04-04T06:35:56.770Z,14.67
2019-04-04T06:38:28.845Z,15.03
2019-04-04T06:41:01.507Z,15.13
2019-04-04T06:43:33.651Z,13.53
2019-04-04T06:46:05.914Z,14.43
2019-04-04T06:48:38.040Z,14.27
2019-04-04T06:51:13.867Z,14.07
2019-04-04T06:53:46.755Z,14.63
2019-04-04T06:56:18.700Z,14.00
2019-04-04T06:58:50.850Z,14.10
2019-04-04T07:01:25.258Z,14.43
2019-04-04T07:03:59.086Z,14.37
2019-04-04T07:06:30.472Z,14.23
2019-04-04T07:09:04.475Z,13.73
2019-04-04T07:11:36.556Z,14.10
2019-04-04T07:14:08.699Z,14.47
2019-04-04T07:16:40.914Z,13.27
2019-04-04T07:19:15.017Z,14.77
2019-04-04T07:21:46.937Z,20.27
2019-04-04T07:24:19.112Z,16.10
2019-04-04T07:26:51.151Z,13.20
2019-04-04T07:29:25.288Z,13.30
2019-04-04T07:31:57.024Z,13.30
2019-04-04T07:34:29.490Z,13.27
2019-04-04T07:37:01.547Z,13.33
2019-04-04T07:39:33.678Z,13.00
2019-04-04T07:42:05.943Z,12.37
2019-04-04T07:44:38.217Z,13.03
2019-04-04T07:47:10.394Z,14.10
2019-04-04T07:49:42.511Z,15.33
2019-04-04T07:52:17.088Z,13.30
2019-04-04T07:54:48.527Z,14.03
2019-04-04T07:57:20.542Z,16.37
2019-04-04T07:59:52.657Z,19.07
2019-04-04T08:02:24.739Z,16.97
2019-04-04T08:04:57.216Z,15.20
2019-04-04T08:07:29.331Z,18.47
2019-04-04T08:10:01.469Z,16.67
2019-04-04T08:12:33.606Z,14.17
2019-04-04T08:15:06.997Z,18.27
2019-04-04T08:17:39.027Z,17.17
2019-04-04T08:20:11.489Z,17.60
2019-04-04T08:22:43.630Z,13.40
2019-04-04T08:25:15.817Z,12.43
2019-04-04T08:27:47.882Z,12.50
2019-04-04T08:30:20.202Z,13.05
2019-04-04T08:32:52.297Z,12.55
2019-04-04T08:35:24.469Z,13.87
2019-04-04T08:37:56.625Z,14.43
2019-04-04T08:40:28.844Z,13.03
2019-04-04T08:43:00.914Z,12.77
2019-04-04T08:45:33.095Z,11.07
2019-04-04T08:48:05.274Z,11.87
2019-04-04T08:50:37.458Z,11.43
2019-04-04T08:53:09.696Z,11.17
2019-04-04T08:55:42.016Z,10.33
2019-04-04T08:58:14.677Z,11.43
2019-04-04T09:00:47.070Z,10.68
2019-04-04T09:03:19.140Z,9.80
2019-04-04T09:05:51.440Z,10.90
2019-04-04T09:08:23.588Z,10.23
2019-04-04T09:10:55.761Z,10.83
2019-04-04T09:13:27.972Z,10.48
2019-04-04T09:16:00.399Z,13.10
2019-04-04T09:18:32.553Z,15.67
2019-04-04T09:21:04.754Z,25.23
2019-04-04T09:23:38.836Z,25.60
2019-04-04T09:26:11.004Z,13.07
2019-04-04T09:28:43.091Z,10.27
2019-04-04T09:31:15.285Z,10.60
2019-04-04T09:33:47.275Z,9.87
2019-04-04T09:36:19.552Z,10.67
2019-04-04T09:38:51.664Z,10.17
2019-04-04T09:41:23.865Z,10.20
2019-04-04T09:43:55.940Z,10.20
2019-04-04T09:46:28.031Z,10.43
2019-04-04T09:49:00.198Z,10.43
2019-04-04T09:51:32.579Z,9.70
2019-04-04T09:54:04.647Z,11.20
2019-04-04T09:56:36.737Z,11.00
2019-04-04T09:59:08.898Z,10.70
2019-04-04T10:01:41.047Z,10.33
2019-04-04T10:04:13.228Z,10.97
2019-04-04T10:06:45.282Z,11.10
2019-04-04T10:09:17.411Z,10.60
2019-04-04T10:11:49.632Z,10.67
2019-04-04T10:14:21.800Z,10.97
2019-04-04T10:16:53.854Z,10.70
2019-04-04T10:19:25.868Z,10.27
2019-04-04T10:21:57.930Z,10.83
2019-04-04T10:24:30.068Z,10.47
2019-04-04T10:27:02.114Z,9.90
2019-04-04T10:29:34.204Z,10.47
2019-04-04T10:32:06.415Z,10.93
2019-04-04T10:34:38.568Z,10.60
2019-04-04T10:37:10.762Z,9.83
2019-04-04T10:39:43.170Z,10.60
2019-04-04T10:42:17.157Z,10.93
2019-04-04T10:44:49.245Z,10.30
2019-04-04T10:47:21.377Z,9.80
2019-04-04T10:49:53.483Z,9.30
2019-04-04T10:52:25.639Z,10.17
2019-04-04T10:54:57.807Z,9.63
2019-04-04T10:57:30.121Z,10.50
2019-04-04T11:00:03.366Z,9.97
2019-04-04T11:02:35.921Z,10.47
2019-04-04T11:05:09.555Z,10.10
2019-04-04T11:07:41.621Z,9.93
2019-04-04T11:10:13.970Z,9.63
2019-04-04T11:12:46.031Z,9.87
2019-04-04T11:15:18.185Z,9.73
2019-04-04T11:17:50.248Z,9.07
2019-04-04T11:20:22.209Z,8.47
2019-04-04T11:22:54.327Z,8.90
2019-04-04T11:25:26.394Z,9.90
2019-04-04T11:28:00.608Z,8.40
2019-04-04T11:30:32.783Z,8.10
2019-04-04T11:33:05.180Z,8.97
2019-04-04T11:35:37.189Z,8.47
2019-04-04T11:38:09.231Z,8.50
2019-04-04T11:40:41.435Z,9.33
2019-04-04T11:43:13.574Z,9.77
2019-04-04T11:45:45.745Z,9.27
2019-04-04T11:48:17.842Z,8.93
2019-04-04T11:50:49.852Z,8.93
2019-04-04T11:53:21.951Z,8.97
2019-04-04T11:55:54.488Z,8.80
2019-04-04T11:58:26.689Z,8.73
2019-04-04T12:01:00.172Z,8.87
2019-04-04T12:03:32.270Z,8.13
2019-04-04T12:06:04.780Z,7.83
2019-04-04T12:08:36.918Z,8.37
2019-04-04T12:11:08.955Z,8.10
2019-04-04T12:13:41.297Z,7.83
2019-04-04T12:16:13.407Z,7.77
2019-04-04T12:18:45.556Z,7.90
2019-04-04T12:21:17.567Z,8.10
2019-04-04T12:23:51.405Z,8.37
2019-04-04T12:26:23.532Z,8.13
2019-04-04T12:28:55.653Z,8.37
2019-04-04T12:31:27.695Z,8.47
2019-04-04T12:34:02.060Z,8.83
2019-04-04T12:36:33.774Z,8.20
2019-04-04T12:39:07.909Z,8.30
2019-04-04T12:41:39.910Z,7.70
2019-04-04T12:44:12.090Z,8.67
2019-04-04T12:46:44.186Z,7.23
2019-04-04T12:49:16.253Z,7.90
2019-04-04T12:51:48.327Z,8.13
2019-04-04T12:54:20.366Z,9.07
2019-04-04T12:56:52.581Z,8.80
2019-04-04T12:59:24.748Z,8.30
2019-04-04T13:01:56.805Z,13.07
2019-04-04T13:04:31.772Z,10.43
2019-04-04T13:07:02.850Z,8.40
2019-04-04T13:09:35.133Z,9.20
2019-04-04T13:12:07.541Z,9.40
2019-04-04T13:14:39.671Z,9.00
2019-04-04T13:17:11.981Z,9.43
2019-04-04T13:19:44.576Z,8.37
2019-04-04T13:22:16.730Z,8.80
2019-04-04T13:24:48.966Z,9.53
2019-04-04T13:27:21.488Z,8.87
2019-04-04T13:29:53.595Z,8.33
2019-04-04T13:32:25.785Z,8.40
2019-04-04T13:34:59.503Z,8.90
2019-04-04T13:37:32.089Z,8.10
2019-04-04T13:40:04.676Z,8.77
2019-04-04T13:42:36.795Z,8.30
2019-04-04T13:45:09.574Z,8.67
2019-04-04T13:47:41.628Z,7.73
2019-04-04T13:50:14.305Z,8.50
2019-04-04T13:52:46.953Z,8.43
2019-04-04T13:55:19.126Z,8.43
2019-04-04T13:57:51.212Z,7.90
2019-04-04T14:00:23.696Z,7.50
2019-04-04T14:02:55.838Z,10.10
2019-04-04T14:05:28.040Z,18.17
2019-04-04T14:08:01.260Z,13.77
2019-04-04T14:10:33.575Z,12.67
2019-04-04T14:13:05.935Z,9.03
2019-04-04T14:15:38.103Z,20.50
2019-04-04T14:18:23.052Z,12.20
2019-04-04T14:21:03.321Z,10.23
2019-04-04T14:23:30.709Z,12.67
2019-04-04T14:26:02.958Z,14.83
2019-04-04T14:28:35.171Z,12.57
2019-04-04T14:31:07.384Z,15.00
2019-04-04T14:33:39.468Z,12.87
2019-04-04T14:36:11.688Z,12.60
2019-04-04T14:38:43.857Z,9.73
2019-04-04T14:41:16.179Z,7.43
2019-04-04T14:43:48.390Z,8.43
2019-04-04T14:46:20.588Z,8.43
2019-04-04T14:48:52.677Z,7.20
2019-04-04T14:51:24.907Z,7.07
2019-04-04T14:53:57.958Z,6.90
2019-04-04T14:56:30.381Z,6.67
2019-04-04T14:59:02.484Z,6.80
2019-04-04T15:01:35.194Z,7.73
2019-04-04T15:04:07.610Z,7.43
2019-04-04T15:06:39.732Z,7.07
2019-04-04T15:09:13.516Z,7.60
2019-04-04T15:11:45.763Z,7.10
2019-04-04T15:14:18.002Z,8.10
2019-04-04T15:16:51.541Z,7.50
2019-04-04T15:19:23.944Z,7.87
2019-04-04T15:21:56.210Z,8.70
2019-04-04T15:24:28.307Z,7.80
2019-04-04T15:27:00.488Z,7.40
2019-04-04T15:29:32.602Z,7.63
2019-04-04T15:32:04.811Z,7.77
2019-04-04T15:34:36.971Z,7.93
2019-04-04T15:37:09.565Z,8.03
2019-04-04T15:39:41.599Z,7.10
2019-04-04T15:42:13.747Z,7.53
2019-04-04T15:44:45.939Z,6.30
2019-04-04T15:47:18.249Z,7.20
2019-04-04T15:49:50.418Z,7.47
2019-04-04T15:52:22.639Z,7.80
2019-04-04T15:54:54.787Z,8.47
2019-04-04T15:57:26.870Z,7.30
2019-04-04T15:59:59.125Z,8.40
2019-04-04T16:02:31.716Z,10.37
2019-04-04T16:05:04.205Z,7.47
2019-04-04T16:07:37.168Z,7.53
2019-04-04T16:10:09.578Z,7.40
2019-04-04T16:12:42.666Z,8.13
2019-04-04T16:15:15.447Z,8.40
2019-04-04T16:17:47.948Z,7.00
2019-04-04T16:20:20.704Z,8.30
2019-04-04T16:22:52.949Z,7.00
2019-04-04T16:25:26.130Z,8.87
2019-04-04T16:27:58.644Z,9.97
2019-04-04T16:30:31.249Z,9.50
2019-04-04T16:33:04.031Z,9.10
2019-04-04T16:35:36.783Z,8.50
2019-04-04T16:38:09.181Z,7.83
2019-04-04T16:40:41.725Z,7.73
2019-04-04T16:43:14.078Z,7.73
2019-04-04T16:45:46.325Z,7.33
2019-04-04T16:48:18.493Z,7.80
2019-04-04T16:50:50.759Z,7.40
2019-04-04T16:53:23.101Z,7.90
2019-04-04T16:55:55.344Z,7.67
2019-04-04T16:58:27.604Z,7.00
2019-04-04T17:00:59.783Z,7.50
2019-04-04T17:03:34.251Z,6.97
2019-04-04T17:06:06.023Z,6.97
2019-04-04T17:08:38.424Z,7.17
2019-04-04T17:11:11.110Z,7.50
2019-04-04T17:13:43.714Z,6.67
2019-04-04T17:16:16.355Z,6.70
2019-04-04T17:18:48.664Z,7.10
2019-04-04T17:21:21.052Z,7.73
2019-04-04T17:23:53.231Z,7.40
2019-04-04T17:26:25.684Z,7.40
2019-04-04T17:28:58.030Z,6.90
2019-04-04T17:31:30.803Z,8.10
2019-04-04T17:34:03.487Z,6.93
2019-04-04T17:36:35.748Z,7.83
2019-04-04T17:39:10.007Z,7.00
2019-04-04T17:41:42.472Z,7.60
2019-04-04T17:44:14.742Z,10.77
2019-04-04T17:46:47.095Z,12.53
2019-04-04T17:49:19.577Z,12.47
2019-04-04T17:51:52.567Z,11.07
2019-04-04T17:54:25.762Z,10.67
2019-04-04T17:56:58.152Z,10.77
2019-04-04T17:59:30.663Z,12.27
2019-04-04T18:02:03.259Z,9.37
2019-04-04T18:04:47.549Z,10.13
2019-04-04T18:07:09.598Z,10.03
2019-04-04T18:09:42.331Z,9.27
2019-04-04T18:12:16.924Z,9.43
2019-04-04T18:14:48.725Z,10.90
2019-04-04T18:17:20.973Z,36.47
2019-04-04T18:19:53.278Z,13.30
2019-04-04T18:22:25.654Z,12.20
2019-04-04T18:24:58.178Z,32.27
2019-04-04T18:27:32.780Z,26.60
2019-04-04T18:30:06.138Z,14.00
2019-04-04T18:32:40.015Z,12.50
2019-04-04T18:35:13.841Z,12.87
2019-04-04T18:37:47.084Z,13.33
2019-04-04T18:40:19.900Z,13.47
2019-04-04T18:42:53.798Z,14.50
2019-04-04T18:45:29.200Z,23.90
2019-04-04T18:48:06.657Z,23.10
2019-04-04T18:50:39.503Z,17.07
2019-04-04T18:53:15.315Z,26.50
2019-04-04T18:55:48.300Z,18.80
2019-04-04T18:58:21.248Z,17.40
2019-04-04T19:00:54.479Z,15.87
2019-04-04T19:03:29.767Z,11.40
2019-04-04T19:06:03.226Z,9.70
2019-04-04T19:08:36.068Z,9.37
2019-04-04T19:11:09.388Z,8.43
2019-04-04T19:13:44.556Z,9.00
2019-04-04T19:16:17.217Z,8.47
2019-04-04T19:18:49.729Z,9.80
2019-04-04T19:21:22.568Z,10.97
2019-04-04T19:23:55.037Z,9.63
2019-04-04T19:26:27.775Z,9.20
2019-04-04T19:29:00.628Z,8.87
2019-04-04T19:31:33.288Z,7.67
2019-04-04T19:34:05.974Z,7.87
2019-04-04T19:36:38.591Z,8.20
2019-04-04T19:39:15.930Z,7.60
2019-04-04T19:41:48.924Z,7.97
2019-04-04T19:44:21.980Z,8.67
2019-04-04T19:46:56.337Z,8.47
2019-04-04T19:49:29.155Z,8.87
2019-04-04T19:52:03.381Z,8.60
2019-04-04T19:54:35.974Z,7.70
2019-04-04T19:57:08.430Z,8.57
2019-04-04T19:59:40.765Z,7.87
2019-04-04T20:02:15.436Z,8.17
2019-04-04T20:04:47.904Z,7.50
2019-04-04T20:07:20.073Z,7.33
2019-04-04T20:09:52.482Z,8.27
2019-04-04T20:12:24.743Z,8.33
2019-04-04T20:14:56.921Z,7.70
2019-04-04T20:17:32.414Z,7.87
2019-04-04T20:20:04.870Z,7.83
2019-04-04T20:22:37.303Z,7.80
2019-04-04T20:25:10.804Z,8.17
2019-04-04T20:27:54.186Z,8.97
2019-04-04T20:30:17.106Z,8.20
2019-04-04T20:32:49.380Z,7.70
2019-04-04T20:35:21.603Z,7.30
2019-04-04T20:37:53.691Z,7.83
2019-04-04T20:40:26.241Z,8.27
2019-04-04T20:42:58.314Z,8.20
2019-04-04T20:45:30.710Z,9.63
2019-04-04T20:48:02.895Z,10.23
2019-04-04T20:50:35.554Z,10.63
2019-04-04T20:53:07.920Z,13.93
2019-04-04T20:55:41.747Z,10.63
2019-04-04T20:58:13.992Z,9.10
2019-04-04T21:00:46.267Z,8.03
2019-04-04T21:03:19.010Z,8.13
2019-04-04T21:05:51.721Z,7.67
2019-04-04T21:08:23.991Z,7.43
2019-04-04T21:10:56.763Z,7.87
2019-04-04T21:13:28.862Z,7.77
2019-04-04T21:16:01.345Z,8.07
2019-04-04T21:18:33.552Z,7.90
2019-04-04T21:21:05.708Z,8.33
2019-04-04T21:23:37.821Z,7.80
2019-04-04T21:26:10.072Z,8.10
2019-04-04T21:28:42.245Z,8.10
2019-04-04T21:31:14.797Z,7.73
2019-04-04T21:33:47.052Z,7.90
2019-04-04T21:36:19.491Z,7.70
2019-04-04T21:38:51.673Z,8.17
2019-04-04T21:41:23.845Z,7.67
2019-04-04T21:44:07.879Z,8.97
2019-04-04T21:46:29.849Z,8.30
2019-04-04T21:49:01.992Z,7.80
2019-04-04T21:51:34.345Z,8.03
2019-04-04T21:54:06.533Z,7.70
2019-04-04T21:56:38.742Z,8.13
2019-04-04T21:59:11.023Z,7.83
2019-04-04T22:01:44.118Z,8.17
2019-04-04T22:04:16.147Z,8.30
2019-04-04T22:06:49.457Z,8.07
2019-04-04T22:09:21.575Z,8.53
2019-04-04T22:11:54.899Z,8.37
2019-04-04T22:14:27.379Z,8.83
2019-04-04T22:16:59.609Z,8.50
2019-04-04T22:19:32.491Z,8.10
2019-04-04T22:22:05.395Z,7.80
2019-04-04T22:24:37.613Z,8.23
2019-04-04T22:27:10.004Z,7.93
2019-04-04T22:29:42.630Z,7.77
2019-04-04T22:32:15.521Z,8.33
2019-04-04T22:34:47.751Z,8.30
2019-04-04T22:37:20.428Z,8.03
2019-04-04T22:39:53.149Z,8.07
2019-04-04T22:42:25.412Z,8.07
2019-04-04T22:44:57.688Z,7.57
2019-04-04T22:47:31.621Z,7.80
2019-04-04T22:50:04.171Z,8.77
2019-04-04T22:52:36.587Z,8.13
2019-04-04T22:55:09.029Z,8.50
2019-04-04T22:57:43.240Z,8.77
2019-04-04T23:00:17.236Z,8.50
2019-04-04T23:02:49.513Z,8.20
2019-04-04T23:05:21.735Z,9.17
2019-04-04T23:07:54.076Z,8.60
2019-04-04T23:10:26.655Z,8.73
2019-04-04T23:12:58.979Z,8.80
2019-04-04T23:15:31.057Z,8.97
2019-04-04T23:18:03.250Z,9.50
2019-04-04T23:20:35.533Z,8.67
2019-04-04T23:23:07.677Z,9.40
2019-04-04T23:25:39.768Z,8.97
2019-04-04T23:28:12.101Z,9.13
2019-04-04T23:30:44.406Z,9.60
2019-04-04T23:33:17.265Z,9.17
2019-04-04T23:35:49.324Z,10.23
2019-04-04T23:38:21.504Z,9.77
2019-04-04T23:40:53.570Z,9.70
2019-04-04T23:43:25.730Z,10.13
2019-04-04T23:45:57.744Z,9.57
2019-04-04T23:48:29.791Z,10.60
2019-04-04T23:51:01.841Z,10.23
2019-04-04T23:53:35.167Z,10.07
2019-04-04T23:56:07.318Z,10.07
2019-04-04T23:58:39.399Z,9.53
